sensor_id;sensor_type;location;lat;lon;timestamp;P1;durP1;ratioP1;P2;durP2;ratioP2
15167;SDS011;7684;52.150;11.656;2022-11-04T05:17:28;10.17;;;8.70;;
15167;SDS011;7684;52.150;11.656;2022-11-04T05:19:54;11.27;;;9.20;;
15167;SDS011;7684;52.150;11.656;2022-11-04T05:22:21;11.23;;;9.20;;
15167;SDS011;7684;52.150;11.656;2022-11-04T05:24:47;10.57;;;9.47;;
15167;SDS011;7684;52.150;11.656;2022-11-04T05:27:14;13.07;;;9.97;;
15167;SDS011;7684;52.150;11.656;2022-11-04T05:29:40;12.00;;;9.97;;
15167;SDS011;7684;52.150;11.656;2022-11-04T05:32:07;11.97;;;9.60;;
15167;SDS011;7684;52.150;11.656;2022-11-04T05:34:34;10.70;;;8.87;;
15167;SDS011;7684;52.150;11.656;2022-11-04T05:37:01;12.27;;;9.20;;
15167;SDS011;7684;52.150;11.656;2022-11-04T05:39:27;14.57;;;9.80;;
15167;SDS011;7684;52.150;11.656;2022-11-04T05:41:54;11.50;;;10.23;;
15167;SDS011;7684;52.150;11.656;2022-11-04T05:44:21;11.67;;;9.50;;
15167;SDS011;7684;52.150;11.656;2022-11-04T05:46:47;10.47;;;8.80;;
15167;SDS011;7684;52.150;11.656;2022-11-04T05:49:14;11.90;;;9.47;;
15167;SDS011;7684;52.150;11.656;2022-11-04T05:51:42;11.40;;;8.53;;
15167;SDS011;7684;52.150;11.656;2022-11-04T05:54:08;10.30;;;9.00;;
15167;SDS011;7684;52.150;11.656;2022-11-04T05:56:35;9.77;;;8.73;;
15167;SDS011;7684;52.150;11.656;2022-11-04T05:59:01;11.67;;;8.80;;
15167;SDS011;7684;52.150;11.656;2022-11-04T06:01:29;12.50;;;9.50;;
15167;SDS011;7684;52.150;11.656;2022-11-04T06:03:56;10.93;;;8.43;;
15167;SDS011;7684;52.150;11.656;2022-11-04T06:06:23;10.47;;;8.67;;
15167;SDS011;7684;52.150;11.656;2022-11-04T06:08:51;11.67;;;8.63;;
15167;SDS011;7684;52.150;11.656;2022-11-04T06:11:17;10.87;;;8.53;;
15167;SDS011;7684;52.150;11.656;2022-11-04T06:13:44;9.43;;;7.97;;
15167;SDS011;7684;52.150;11.656;2022-11-04T06:16:10;9.77;;;8.40;;
15167;SDS011;7684;52.150;11.656;2022-11-04T06:18:37;8.97;;;8.07;;
15167;SDS011;7684;52.150;11.656;2022-11-04T06:21:07;9.20;;;7.93;;
15167;SDS011;7684;52.150;11.656;2022-11-04T06:23:34;9.60;;;7.80;;
15167;SDS011;7684;52.150;11.656;2022-11-04T06:26:02;10.23;;;8.00;;
15167;SDS011;7684;52.150;11.656;2022-11-04T06:28:28;10.40;;;8.27;;
15167;SDS011;7684;52.150;11.656;2022-11-04T06:30:55;11.07;;;8.13;;
15167;SDS011;7684;52.150;11.656;2022-11-04T06:33:22;11.03;;;9.40;;
15167;SDS011;7684;52.150;11.656;2022-11-04T06:35:48;9.90;;;8.47;;
15167;SDS011;7684;52.150;11.656;2022-11-04T06:38:15;8.63;;;7.80;;
15167;SDS011;7684;52.150;11.656;2022-11-04T06:40:41;8.80;;;7.10;;
15167;SDS011;7684;52.150;11.656;2022-11-04T06:43:09;8.83;;;7.23;;
15167;SDS011;7684;52.150;11.656;2022-11-04T06:45:35;9.43;;;7.40;;
15167;SDS011;7684;52.150;11.656;2022-11-04T06:48:02;7.33;;;6.63;;
15167;SDS011;7684;52.150;11.656;2022-11-04T06:50:29;8.17;;;7.27;;
15167;SDS011;7684;52.150;11.656;2022-11-04T06:52:55;9.17;;;6.97;;
15167;SDS011;7684;52.150;11.656;2022-11-04T06:55:22;8.37;;;6.57;;
15167;SDS011;7684;52.150;11.656;2022-11-04T06:57:48;8.80;;;7.10;;
15167;SDS011;7684;52.150;11.656;2022-11-04T07:00:16;8.20;;;6.50;;
15167;SDS011;7684;52.150;11.656;2022-11-04T07:02:43;7.63;;;6.50;;
15167;SDS011;7684;52.150;11.656;2022-11-04T07:05:10;7.70;;;6.37;;
15167;SDS011;7684;52.150;11.656;2022-11-04T07:07:37;7.17;;;6.47;;
15167;SDS011;7684;52.150;11.656;2022-11-04T07:10:04;7.23;;;6.00;;
15167;SDS011;7684;52.150;11.656;2022-11-04T07:12:30;9.17;;;7.33;;
15167;SDS011;7684;52.150;11.656;2022-11-04T07:14:57;7.07;;;6.37;;
15167;SDS011;7684;52.150;11.656;2022-11-04T07:17:25;7.50;;;5.77;;
15167;SDS011;7684;52.150;11.656;2022-11-04T07:19:51;5.97;;;5.37;;
15167;SDS011;7684;52.150;11.656;2022-11-04T07:22:18;5.20;;;4.77;;
15167;SDS011;7684;52.150;11.656;2022-11-04T07:24:45;5.47;;;4.97;;
15167;SDS011;7684;52.150;11.656;2022-11-04T07:27:11;5.67;;;5.07;;
15167;SDS011;7684;52.150;11.656;2022-11-04T07:29:38;5.57;;;4.43;;
15167;SDS011;7684;52.150;11.656;2022-11-04T07:32:05;6.20;;;4.87;;
15167;SDS011;7684;52.150;11.656;2022-11-04T07:34:32;4.27;;;3.87;;
15167;SDS011;7684;52.150;11.656;2022-11-04T07:36:59;5.87;;;4.17;;
15167;SDS011;7684;52.150;11.656;2022-11-04T07:39:25;6.07;;;4.73;;
15167;SDS011;7684;52.150;11.656;2022-11-04T07:41:52;4.50;;;4.10;;
15167;SDS011;7684;52.150;11.656;2022-11-04T07:44:18;4.80;;;3.90;;
15167;SDS011;7684;52.150;11.656;2022-11-04T07:46:47;4.20;;;3.90;;
15167;SDS011;7684;52.150;11.656;2022-11-04T07:49:13;3.80;;;3.40;;
15167;SDS011;7684;52.150;11.656;2022-11-04T07:51:41;3.90;;;3.50;;
15167;SDS011;7684;52.150;11.656;2022-11-04T07:54:07;4.10;;;3.67;;
15167;SDS011;7684;52.150;11.656;2022-11-04T07:56:34;3.97;;;3.63;;
15167;SDS011;7684;52.150;11.656;2022-11-04T07:59:00;3.53;;;3.23;;
15167;SDS011;7684;52.150;11.656;2022-11-04T08:01:28;3.37;;;3.07;;
15167;SDS011;7684;52.150;11.656;2022-11-04T08:03:54;3.27;;;2.97;;
15167;SDS011;7684;52.150;11.656;2022-11-04T08:06:20;3.50;;;3.20;;
15167;SDS011;7684;52.150;11.656;2022-11-04T08:08:48;3.30;;;3.00;;
15167;SDS011;7684;52.150;11.656;2022-11-04T08:11:18;4.00;;;3.70;;
15167;SDS011;7684;52.150;11.656;2022-11-04T08:13:46;3.50;;;3.17;;
15167;SDS011;7684;52.150;11.656;2022-11-04T08:16:13;4.03;;;3.63;;
15167;SDS011;7684;52.150;11.656;2022-11-04T08:18:40;4.33;;;3.43;;
15167;SDS011;7684;52.150;11.656;2022-11-04T08:21:07;4.30;;;3.90;;
15167;SDS011;7684;52.150;11.656;2022-11-04T08:23:34;4.73;;;4.03;;
15167;SDS011;7684;52.150;11.656;2022-11-04T08:26:05;3.50;;;3.20;;
15167;SDS011;7684;52.150;11.656;2022-11-04T08:28:34;3.73;;;3.40;;
15167;SDS011;7684;52.150;11.656;2022-11-04T08:31:02;3.27;;;2.93;;
15167;SDS011;7684;52.150;11.656;2022-11-04T08:33:29;3.23;;;2.80;;
15167;SDS011;7684;52.150;11.656;2022-11-04T08:35:58;3.97;;;3.03;;
15167;SDS011;7684;52.150;11.656;2022-11-04T08:38:24;2.60;;;2.40;;
15167;SDS011;7684;52.150;11.656;2022-11-04T08:40:51;2.37;;;2.17;;
15167;SDS011;7684;52.150;11.656;2022-11-04T08:43:21;3.30;;;2.30;;
15167;SDS011;7684;52.150;11.656;2022-11-04T08:45:47;2.40;;;2.20;;
15167;SDS011;7684;52.150;11.656;2022-11-04T08:48:14;3.37;;;2.30;;
15167;SDS011;7684;52.150;11.656;2022-11-04T08:50:41;2.67;;;2.47;;
15167;SDS011;7684;52.150;11.656;2022-11-04T08:53:07;2.20;;;2.10;;
15167;SDS011;7684;52.150;11.656;2022-11-04T08:55:34;2.37;;;2.17;;
15167;SDS011;7684;52.150;11.656;2022-11-04T08:58:00;2.17;;;1.80;;
15167;SDS011;7684;52.150;11.656;2022-11-04T09:00:28;2.20;;;2.00;;
15167;SDS011;7684;52.150;11.656;2022-11-04T09:02:57;3.13;;;1.80;;
15167;SDS011;7684;52.150;11.656;2022-11-04T09:05:23;2.17;;;1.97;;
15167;SDS011;7684;52.150;11.656;2022-11-04T09:07:50;2.20;;;2.00;;
15167;SDS011;7684;52.150;11.656;2022-11-04T09:10:16;2.17;;;1.77;;
15167;SDS011;7684;52.150;11.656;2022-11-04T09:12:43;2.77;;;2.20;;
15167;SDS011;7684;52.150;11.656;2022-11-04T09:15:10;1.60;;;1.50;;
15167;SDS011;7684;52.150;11.656;2022-11-04T09:17:38;2.67;;;2.20;;
15167;SDS011;7684;52.150;11.656;2022-11-04T09:20:04;1.93;;;1.70;;
15167;SDS011;7684;52.150;11.656;2022-11-04T09:22:31;2.03;;;1.83;;
15167;SDS011;7684;52.150;11.656;2022-11-04T09:24:57;2.00;;;1.80;;
15167;SDS011;7684;52.150;11.656;2022-11-04T09:27:24;2.40;;;1.90;;
15167;SDS011;7684;52.150;11.656;2022-11-04T09:29:50;2.90;;;2.00;;
15167;SDS011;7684;52.150;11.656;2022-11-04T09:32:16;1.87;;;1.77;;
15167;SDS011;7684;52.150;11.656;2022-11-04T09:34:44;3.40;;;2.20;;
15167;SDS011;7684;52.150;11.656;2022-11-04T09:37:11;2.60;;;2.40;;
15167;SDS011;7684;52.150;11.656;2022-11-04T09:39:37;3.57;;;2.10;;
15167;SDS011;7684;52.150;11.656;2022-11-04T09:42:06;4.60;;;2.10;;
15167;SDS011;7684;52.150;11.656;2022-11-04T09:44:41;4.93;;;2.20;;
15167;SDS011;7684;52.150;11.656;2022-11-04T09:47:09;3.00;;;2.10;;
15167;SDS011;7684;52.150;11.656;2022-11-04T09:49:38;3.00;;;1.67;;
15167;SDS011;7684;52.150;11.656;2022-11-04T09:52:12;2.10;;;1.87;;
15167;SDS011;7684;52.150;11.656;2022-11-04T09:54:42;1.90;;;1.70;;
15167;SDS011;7684;52.150;11.656;2022-11-04T09:57:12;2.27;;;1.63;;
15167;SDS011;7684;52.150;11.656;2022-11-04T09:59:39;1.80;;;1.40;;
15167;SDS011;7684;52.150;11.656;2022-11-04T10:02:12;3.27;;;1.50;;
15167;SDS011;7684;52.150;11.656;2022-11-04T10:04:44;4.13;;;2.10;;
15167;SDS011;7684;52.150;11.656;2022-11-04T10:07:19;1.83;;;1.60;;
15167;SDS011;7684;52.150;11.656;2022-11-04T10:09:50;3.07;;;1.90;;
15167;SDS011;7684;52.150;11.656;2022-11-04T10:12:23;5.83;;;2.00;;
15167;SDS011;7684;52.150;11.656;2022-11-04T10:15:03;2.60;;;1.67;;
15167;SDS011;7684;52.150;11.656;2022-11-04T10:17:38;4.90;;;2.27;;
15167;SDS011;7684;52.150;11.656;2022-11-04T10:20:12;2.80;;;1.97;;
15167;SDS011;7684;52.150;11.656;2022-11-04T10:22:50;2.93;;;2.17;;
15167;SDS011;7684;52.150;11.656;2022-11-04T10:25:20;3.33;;;1.67;;
15167;SDS011;7684;52.150;11.656;2022-11-04T10:27:46;2.47;;;1.80;;
15167;SDS011;7684;52.150;11.656;2022-11-04T10:30:14;3.87;;;1.70;;
15167;SDS011;7684;52.150;11.656;2022-11-04T10:32:44;4.40;;;1.90;;
15167;SDS011;7684;52.150;11.656;2022-11-04T10:35:14;3.23;;;2.20;;
15167;SDS011;7684;52.150;11.656;2022-11-04T10:37:45;3.10;;;2.10;;
15167;SDS011;7684;52.150;11.656;2022-11-04T10:40:15;3.77;;;2.27;;
15167;SDS011;7684;52.150;11.656;2022-11-04T10:42:42;3.07;;;2.00;;
15167;SDS011;7684;52.150;11.656;2022-11-04T10:45:09;4.03;;;2.10;;
15167;SDS011;7684;52.150;11.656;2022-11-04T10:47:38;3.67;;;2.23;;
15167;SDS011;7684;52.150;11.656;2022-11-04T10:50:17;5.60;;;2.00;;
15167;SDS011;7684;52.150;11.656;2022-11-04T10:52:48;3.73;;;2.20;;
15167;SDS011;7684;52.150;11.656;2022-11-04T10:55:20;4.60;;;2.17;;
15167;SDS011;7684;52.150;11.656;2022-11-04T10:57:47;3.57;;;2.10;;
15167;SDS011;7684;52.150;11.656;2022-11-04T11:02:55;3.60;;;2.23;;
15167;SDS011;7684;52.150;11.656;2022-11-04T11:05:23;4.37;;;2.03;;
15167;SDS011;7684;52.150;11.656;2022-11-04T11:07:52;4.17;;;2.47;;
15167;SDS011;7684;52.150;11.656;2022-11-04T11:10:20;2.87;;;2.10;;
15167;SDS011;7684;52.150;11.656;2022-11-04T11:12:50;4.00;;;1.60;;
15167;SDS011;7684;52.150;11.656;2022-11-04T11:15:18;3.83;;;1.93;;
15167;SDS011;7684;52.150;11.656;2022-11-04T11:17:50;2.20;;;1.60;;
15167;SDS011;7684;52.150;11.656;2022-11-04T11:20:19;5.20;;;2.47;;
15167;SDS011;7684;52.150;11.656;2022-11-04T11:22:46;4.47;;;2.10;;
15167;SDS011;7684;52.150;11.656;2022-11-04T11:25:18;4.27;;;2.23;;
15167;SDS011;7684;52.150;11.656;2022-11-04T11:27:46;2.47;;;1.80;;
15167;SDS011;7684;52.150;11.656;2022-11-04T11:30:20;4.73;;;1.83;;
15167;SDS011;7684;52.150;11.656;2022-11-04T11:32:47;2.77;;;1.93;;
15167;SDS011;7684;52.150;11.656;2022-11-04T11:35:18;2.37;;;1.70;;
15167;SDS011;7684;52.150;11.656;2022-11-04T11:37:47;3.37;;;2.30;;
15167;SDS011;7684;52.150;11.656;2022-11-04T11:40:25;3.47;;;2.23;;
15167;SDS011;7684;52.150;11.656;2022-11-04T11:42:52;4.33;;;2.07;;
15167;SDS011;7684;52.150;11.656;2022-11-04T11:45:18;2.97;;;1.90;;
15167;SDS011;7684;52.150;11.656;2022-11-04T11:47:45;3.43;;;1.80;;
15167;SDS011;7684;52.150;11.656;2022-11-04T11:50:17;3.83;;;2.40;;
15167;SDS011;7684;52.150;11.656;2022-11-04T11:52:44;3.40;;;2.10;;
15167;SDS011;7684;52.150;11.656;2022-11-04T11:55:13;4.47;;;2.50;;
15167;SDS011;7684;52.150;11.656;2022-11-04T11:57:46;3.97;;;2.53;;
15167;SDS011;7684;52.150;11.656;2022-11-04T12:00:14;3.77;;;2.23;;
15167;SDS011;7684;52.150;11.656;2022-11-04T12:02:46;3.97;;;2.50;;
15167;SDS011;7684;52.150;11.656;2022-11-04T12:05:15;5.03;;;2.50;;
15167;SDS011;7684;52.150;11.656;2022-11-04T12:07:45;4.70;;;2.17;;
15167;SDS011;7684;52.150;11.656;2022-11-04T12:10:16;3.40;;;2.47;;
15167;SDS011;7684;52.150;11.656;2022-11-04T12:12:57;4.13;;;2.40;;
15167;SDS011;7684;52.150;11.656;2022-11-04T12:15:31;3.23;;;2.50;;
15167;SDS011;7684;52.150;11.656;2022-11-04T12:20:51;4.37;;;2.53;;
15167;SDS011;7684;52.150;11.656;2022-11-04T12:23:21;6.43;;;2.97;;
15167;SDS011;7684;52.150;11.656;2022-11-04T12:25:53;4.67;;;3.20;;
15167;SDS011;7684;52.150;11.656;2022-11-04T12:28:28;6.33;;;3.13;;
15167;SDS011;7684;52.150;11.656;2022-11-04T12:30:59;3.10;;;2.80;;
15167;SDS011;7684;52.150;11.656;2022-11-04T12:33:31;4.07;;;2.80;;
15167;SDS011;7684;52.150;11.656;2022-11-04T12:36:02;7.13;;;3.03;;
15167;SDS011;7684;52.150;11.656;2022-11-04T12:38:35;3.57;;;2.93;;
15167;SDS011;7684;52.150;11.656;2022-11-04T12:41:05;3.77;;;2.90;;
15167;SDS011;7684;52.150;11.656;2022-11-04T12:43:39;4.93;;;3.50;;
15167;SDS011;7684;52.150;11.656;2022-11-04T12:46:11;6.20;;;3.60;;
15167;SDS011;7684;52.150;11.656;2022-11-04T12:48:45;7.07;;;3.30;;
15167;SDS011;7684;52.150;11.656;2022-11-04T12:51:15;5.40;;;3.40;;
15167;SDS011;7684;52.150;11.656;2022-11-04T12:53:47;7.40;;;3.70;;
15167;SDS011;7684;52.150;11.656;2022-11-04T12:56:16;4.33;;;3.23;;
15167;SDS011;7684;52.150;11.656;2022-11-04T12:58:51;5.03;;;3.23;;
15167;SDS011;7684;52.150;11.656;2022-11-04T13:01:22;6.13;;;3.50;;
15167;SDS011;7684;52.150;11.656;2022-11-04T13:03:51;4.77;;;3.00;;
15167;SDS011;7684;52.150;11.656;2022-11-04T13:06:19;4.27;;;3.00;;
15167;SDS011;7684;52.150;11.656;2022-11-04T13:08:48;4.17;;;3.13;;
15167;SDS011;7684;52.150;11.656;2022-11-04T13:11:16;3.50;;;3.10;;
15167;SDS011;7684;52.150;11.656;2022-11-04T13:13:55;5.00;;;3.43;;
15167;SDS011;7684;52.150;11.656;2022-11-04T13:16:23;4.83;;;3.27;;
15167;SDS011;7684;52.150;11.656;2022-11-04T13:18:50;6.13;;;3.83;;
15167;SDS011;7684;52.150;11.656;2022-11-04T13:21:17;6.60;;;3.73;;
15167;SDS011;7684;52.150;11.656;2022-11-04T13:23:47;6.60;;;4.50;;
15167;SDS011;7684;52.150;11.656;2022-11-04T13:26:16;5.00;;;3.80;;
15167;SDS011;7684;52.150;11.656;2022-11-04T13:28:43;6.57;;;4.00;;
15167;SDS011;7684;52.150;11.656;2022-11-04T13:31:13;7.10;;;3.90;;
15167;SDS011;7684;52.150;11.656;2022-11-04T13:33:46;5.37;;;3.30;;
15167;SDS011;7684;52.150;11.656;2022-11-04T13:36:20;4.93;;;2.57;;
15167;SDS011;7684;52.150;11.656;2022-11-04T13:38:49;4.00;;;2.40;;
15167;SDS011;7684;52.150;11.656;2022-11-04T13:41:22;3.27;;;2.10;;
15167;SDS011;7684;52.150;11.656;2022-11-04T13:43:53;2.70;;;2.50;;
15167;SDS011;7684;52.150;11.656;2022-11-04T13:46:24;2.70;;;2.20;;
15167;SDS011;7684;52.150;11.656;2022-11-04T13:48:56;4.60;;;2.53;;
15167;SDS011;7684;52.150;11.656;2022-11-04T13:51:32;3.73;;;2.30;;
15167;SDS011;7684;52.150;11.656;2022-11-04T13:53:59;3.20;;;2.50;;
15167;SDS011;7684;52.150;11.656;2022-11-04T13:56:29;3.43;;;2.20;;
15167;SDS011;7684;52.150;11.656;2022-11-04T13:58:57;3.13;;;2.10;;
15167;SDS011;7684;52.150;11.656;2022-11-04T14:01:28;2.87;;;2.13;;
15167;SDS011;7684;52.150;11.656;2022-11-04T14:04:00;2.87;;;2.23;;
15167;SDS011;7684;52.150;11.656;2022-11-04T14:06:46;4.00;;;2.23;;
15167;SDS011;7684;52.150;11.656;2022-11-04T14:09:22;3.27;;;2.13;;
15167;SDS011;7684;52.150;11.656;2022-11-04T14:14:47;3.90;;;2.90;;
15167;SDS011;7684;52.150;11.656;2022-11-04T14:19:57;5.93;;;3.13;;
15167;SDS011;7684;52.150;11.656;2022-11-04T14:22:31;3.23;;;2.93;;
15167;SDS011;7684;52.150;11.656;2022-11-04T14:24:59;4.83;;;2.80;;
15167;SDS011;7684;52.150;11.656;2022-11-04T14:27:29;3.60;;;2.40;;
15167;SDS011;7684;52.150;11.656;2022-11-04T14:29:58;4.90;;;3.20;;
15167;SDS011;7684;52.150;11.656;2022-11-04T14:32:25;4.27;;;2.60;;
15167;SDS011;7684;52.150;11.656;2022-11-04T14:34:58;3.73;;;3.17;;
15167;SDS011;7684;52.150;11.656;2022-11-04T14:37:25;4.30;;;2.87;;
15167;SDS011;7684;52.150;11.656;2022-11-04T14:39:54;3.47;;;2.93;;
15167;SDS011;7684;52.150;11.656;2022-11-04T14:45:03;6.13;;;3.07;;
15167;SDS011;7684;52.150;11.656;2022-11-04T14:47:33;5.17;;;3.13;;
15167;SDS011;7684;52.150;11.656;2022-11-04T14:50:04;4.07;;;3.30;;
15167;SDS011;7684;52.150;11.656;2022-11-04T14:52:34;4.23;;;3.00;;
15167;SDS011;7684;52.150;11.656;2022-11-04T14:55:02;4.73;;;3.23;;
15167;SDS011;7684;52.150;11.656;2022-11-04T14:57:34;5.50;;;3.13;;
15167;SDS011;7684;52.150;11.656;2022-11-04T15:02:43;3.27;;;2.97;;
15167;SDS011;7684;52.150;11.656;2022-11-04T15:05:21;3.13;;;2.67;;
15167;SDS011;7684;52.150;11.656;2022-11-04T15:07:48;3.13;;;2.80;;
15167;SDS011;7684;52.150;11.656;2022-11-04T15:10:19;5.60;;;3.00;;
15167;SDS011;7684;52.150;11.656;2022-11-04T15:12:46;6.10;;;3.27;;
15167;SDS011;7684;52.150;11.656;2022-11-04T15:17:59;3.87;;;3.10;;
15167;SDS011;7684;52.150;11.656;2022-11-04T15:20:28;4.07;;;2.73;;
15167;SDS011;7684;52.150;11.656;2022-11-04T15:22:55;3.10;;;2.70;;
15167;SDS011;7684;52.150;11.656;2022-11-04T15:25:22;4.07;;;3.17;;
15167;SDS011;7684;52.150;11.656;2022-11-04T15:27:49;5.30;;;3.13;;
15167;SDS011;7684;52.150;11.656;2022-11-04T15:30:18;3.47;;;3.13;;
15167;SDS011;7684;52.150;11.656;2022-11-04T15:32:51;3.30;;;3.00;;
15167;SDS011;7684;52.150;11.656;2022-11-04T15:35:18;4.83;;;4.00;;
15167;SDS011;7684;52.150;11.656;2022-11-04T15:37:46;5.97;;;4.00;;
15167;SDS011;7684;52.150;11.656;2022-11-04T15:40:13;4.97;;;3.57;;
15167;SDS011;7684;52.150;11.656;2022-11-04T15:42:41;4.90;;;3.67;;
15167;SDS011;7684;52.150;11.656;2022-11-04T15:50:41;8.93;;;3.87;;
15167;SDS011;7684;52.150;11.656;2022-11-04T15:53:13;5.63;;;4.13;;
15167;SDS011;7684;52.150;11.656;2022-11-04T15:55:41;5.27;;;4.70;;
15167;SDS011;7684;52.150;11.656;2022-11-04T15:58:08;6.93;;;4.50;;
15167;SDS011;7684;52.150;11.656;2022-11-04T16:00:35;4.97;;;3.97;;
15167;SDS011;7684;52.150;11.656;2022-11-04T16:03:01;5.63;;;4.10;;
15167;SDS011;7684;52.150;11.656;2022-11-04T16:05:29;4.40;;;4.00;;
15167;SDS011;7684;52.150;11.656;2022-11-04T16:11:06;6.27;;;3.70;;
15167;SDS011;7684;52.150;11.656;2022-11-04T16:13:32;7.07;;;4.47;;
15167;SDS011;7684;52.150;11.656;2022-11-04T16:16:03;5.70;;;4.60;;
15167;SDS011;7684;52.150;11.656;2022-11-04T16:18:34;5.40;;;4.90;;
15167;SDS011;7684;52.150;11.656;2022-11-04T16:21:02;9.63;;;6.67;;
15167;SDS011;7684;52.150;11.656;2022-11-04T16:23:29;11.93;;;8.27;;
15167;SDS011;7684;52.150;11.656;2022-11-04T16:25:59;10.27;;;8.40;;
15167;SDS011;7684;52.150;11.656;2022-11-04T16:28:26;13.87;;;11.63;;
15167;SDS011;7684;52.150;11.656;2022-11-04T16:30:57;14.03;;;10.07;;
15167;SDS011;7684;52.150;11.656;2022-11-04T16:33:23;9.63;;;8.63;;
15167;SDS011;7684;52.150;11.656;2022-11-04T16:35:49;10.03;;;8.07;;
15167;SDS011;7684;52.150;11.656;2022-11-04T16:38:16;9.67;;;6.80;;
15167;SDS011;7684;52.150;11.656;2022-11-04T16:40:42;7.43;;;6.67;;
15167;SDS011;7684;52.150;11.656;2022-11-04T16:43:11;6.47;;;5.83;;
15167;SDS011;7684;52.150;11.656;2022-11-04T16:45:41;7.27;;;6.20;;
15167;SDS011;7684;52.150;11.656;2022-11-04T16:48:09;7.23;;;6.37;;
15167;SDS011;7684;52.150;11.656;2022-11-04T16:50:38;7.37;;;6.50;;
15167;SDS011;7684;52.150;11.656;2022-11-04T16:53:04;7.90;;;7.20;;
15167;SDS011;7684;52.150;11.656;2022-11-04T16:55:30;10.53;;;7.83;;
15167;SDS011;7684;52.150;11.656;2022-11-04T16:57:58;9.23;;;8.20;;
15167;SDS011;7684;52.150;11.656;2022-11-04T17:00:26;10.73;;;8.40;;
15167;SDS011;7684;52.150;11.656;2022-11-04T17:02:53;8.57;;;7.67;;
15167;SDS011;7684;52.150;11.656;2022-11-04T17:05:20;9.27;;;7.03;;
15167;SDS011;7684;52.150;11.656;2022-11-04T17:07:46;7.43;;;6.73;;
15167;SDS011;7684;52.150;11.656;2022-11-04T17:10:13;7.50;;;6.80;;
15167;SDS011;7684;52.150;11.656;2022-11-04T17:12:40;8.00;;;6.90;;
15167;SDS011;7684;52.150;11.656;2022-11-04T17:15:07;8.27;;;6.93;;
15167;SDS011;7684;52.150;11.656;2022-11-04T17:17:35;7.60;;;6.70;;
15167;SDS011;7684;52.150;11.656;2022-11-04T17:20:01;8.00;;;7.00;;
15167;SDS011;7684;52.150;11.656;2022-11-04T17:22:29;7.03;;;6.37;;
15167;SDS011;7684;52.150;11.656;2022-11-04T17:24:56;8.57;;;6.70;;
15167;SDS011;7684;52.150;11.656;2022-11-04T17:27:22;6.97;;;6.30;;
15167;SDS011;7684;52.150;11.656;2022-11-04T17:29:49;7.03;;;6.33;;
15167;SDS011;7684;52.150;11.656;2022-11-04T17:32:16;6.57;;;5.97;;
15167;SDS011;7684;52.150;11.656;2022-11-04T17:34:43;7.93;;;6.37;;
15167;SDS011;7684;52.150;11.656;2022-11-04T17:37:10;7.07;;;6.47;;
15167;SDS011;7684;52.150;11.656;2022-11-04T17:39:37;7.60;;;6.43;;
15167;SDS011;7684;52.150;11.656;2022-11-04T17:42:04;7.07;;;6.20;;
15167;SDS011;7684;52.150;11.656;2022-11-04T17:44:48;7.07;;;5.70;;
15167;SDS011;7684;52.150;11.656;2022-11-04T17:47:16;11.13;;;7.07;;
15167;SDS011;7684;52.150;11.656;2022-11-04T17:49:43;12.57;;;9.53;;
15167;SDS011;7684;52.150;11.656;2022-11-04T17:52:10;11.07;;;9.60;;
15167;SDS011;7684;52.150;11.656;2022-11-04T17:54:36;11.00;;;9.57;;
15167;SDS011;7684;52.150;11.656;2022-11-04T17:57:02;9.27;;;7.00;;
15167;SDS011;7684;52.150;11.656;2022-11-04T17:59:29;8.37;;;5.17;;
15167;SDS011;7684;52.150;11.656;2022-11-04T18:01:55;6.67;;;5.90;;
15167;SDS011;7684;52.150;11.656;2022-11-04T18:04:22;5.90;;;5.30;;
15167;SDS011;7684;52.150;11.656;2022-11-04T18:06:50;5.17;;;4.77;;
15167;SDS011;7684;52.150;11.656;2022-11-04T18:09:17;6.57;;;4.93;;
15167;SDS011;7684;52.150;11.656;2022-11-04T18:11:44;6.23;;;5.70;;
15167;SDS011;7684;52.150;11.656;2022-11-04T18:14:28;6.27;;;5.30;;
15167;SDS011;7684;52.150;11.656;2022-11-04T18:16:54;7.97;;;4.90;;
15167;SDS011;7684;52.150;11.656;2022-11-04T18:19:21;6.23;;;4.93;;
15167;SDS011;7684;52.150;11.656;2022-11-04T18:21:49;6.47;;;4.97;;
15167;SDS011;7684;52.150;11.656;2022-11-04T18:24:16;6.33;;;4.97;;
15167;SDS011;7684;52.150;11.656;2022-11-04T18:26:43;5.57;;;4.67;;
15167;SDS011;7684;52.150;11.656;2022-11-04T18:29:10;7.77;;;5.43;;
15167;SDS011;7684;52.150;11.656;2022-11-04T18:31:37;5.27;;;4.77;;
15167;SDS011;7684;52.150;11.656;2022-11-04T18:34:05;6.70;;;5.90;;
15167;SDS011;7684;52.150;11.656;2022-11-04T18:36:33;8.87;;;7.27;;
15167;SDS011;7684;52.150;11.656;2022-11-04T18:39:03;8.93;;;7.80;;
15167;SDS011;7684;52.150;11.656;2022-11-04T18:41:33;7.83;;;6.57;;
15167;SDS011;7684;52.150;11.656;2022-11-04T18:44:00;6.33;;;5.40;;
15167;SDS011;7684;52.150;11.656;2022-11-04T18:46:26;6.10;;;5.50;;
15167;SDS011;7684;52.150;11.656;2022-11-04T18:48:53;6.60;;;4.73;;
15167;SDS011;7684;52.150;11.656;2022-11-04T18:51:20;4.87;;;4.40;;
15167;SDS011;7684;52.150;11.656;2022-11-04T18:53:47;4.40;;;4.00;;
15167;SDS011;7684;52.150;11.656;2022-11-04T18:56:16;5.00;;;4.60;;
15167;SDS011;7684;52.150;11.656;2022-11-04T18:58:42;5.23;;;4.73;;
15167;SDS011;7684;52.150;11.656;2022-11-04T19:01:10;5.33;;;4.50;;
15167;SDS011;7684;52.150;11.656;2022-11-04T19:03:37;4.77;;;4.37;;
15167;SDS011;7684;52.150;11.656;2022-11-04T19:06:05;5.47;;;4.90;;
15167;SDS011;7684;52.150;11.656;2022-11-04T19:08:31;5.17;;;4.30;;
15167;SDS011;7684;52.150;11.656;2022-11-04T19:10:58;5.57;;;4.97;;
15167;SDS011;7684;52.150;11.656;2022-11-04T19:13:26;5.23;;;4.67;;
15167;SDS011;7684;52.150;11.656;2022-11-04T19:15:52;5.13;;;4.60;;
15167;SDS011;7684;52.150;11.656;2022-11-04T19:18:18;7.37;;;4.60;;
15167;SDS011;7684;52.150;11.656;2022-11-04T19:20:45;6.70;;;5.77;;
15167;SDS011;7684;52.150;11.656;2022-11-04T19:23:11;6.47;;;5.83;;
15167;SDS011;7684;52.150;11.656;2022-11-04T19:25:38;6.47;;;5.87;;
15167;SDS011;7684;52.150;11.656;2022-11-04T19:28:05;6.93;;;5.03;;
15167;SDS011;7684;52.150;11.656;2022-11-04T19:30:34;7.10;;;5.27;;
15167;SDS011;7684;52.150;11.656;2022-11-04T19:33:04;6.27;;;5.20;;
15167;SDS011;7684;52.150;11.656;2022-11-04T19:35:30;5.37;;;4.87;;
15167;SDS011;7684;52.150;11.656;2022-11-04T19:37:57;5.20;;;4.70;;
15167;SDS011;7684;52.150;11.656;2022-11-04T19:40:26;5.57;;;4.83;;
15167;SDS011;7684;52.150;11.656;2022-11-04T19:42:53;5.03;;;4.53;;
15167;SDS011;7684;52.150;11.656;2022-11-04T19:45:37;6.50;;;4.93;;
15167;SDS011;7684;52.150;11.656;2022-11-04T19:48:08;7.23;;;6.20;;
15167;SDS011;7684;52.150;11.656;2022-11-04T19:50:38;6.00;;;5.50;;
15167;SDS011;7684;52.150;11.656;2022-11-04T19:53:05;5.73;;;5.20;;
15167;SDS011;7684;52.150;11.656;2022-11-04T19:55:32;7.30;;;5.20;;
15167;SDS011;7684;52.150;11.656;2022-11-04T19:57:58;8.77;;;5.20;;
15167;SDS011;7684;52.150;11.656;2022-11-04T20:00:25;7.30;;;5.70;;
15167;SDS011;7684;52.150;11.656;2022-11-04T20:02:53;7.03;;;5.40;;
15167;SDS011;7684;52.150;11.656;2022-11-04T20:05:20;8.00;;;5.47;;
15167;SDS011;7684;52.150;11.656;2022-11-04T20:07:47;7.97;;;5.90;;
15167;SDS011;7684;52.150;11.656;2022-11-04T20:10:18;7.30;;;6.20;;
15167;SDS011;7684;52.150;11.656;2022-11-04T20:12:44;6.80;;;6.10;;
15167;SDS011;7684;52.150;11.656;2022-11-04T20:15:28;5.90;;;5.07;;
15167;SDS011;7684;52.150;11.656;2022-11-04T20:17:55;7.23;;;5.50;;
15167;SDS011;7684;52.150;11.656;2022-11-04T20:20:22;7.10;;;5.90;;
15167;SDS011;7684;52.150;11.656;2022-11-04T20:22:48;8.80;;;5.87;;
15167;SDS011;7684;52.150;11.656;2022-11-04T20:25:15;6.73;;;5.73;;
15167;SDS011;7684;52.150;11.656;2022-11-04T20:27:41;9.97;;;6.27;;
15167;SDS011;7684;52.150;11.656;2022-11-04T20:30:08;6.17;;;5.57;;
15167;SDS011;7684;52.150;11.656;2022-11-04T20:32:34;8.23;;;6.43;;
15167;SDS011;7684;52.150;11.656;2022-11-04T20:35:02;7.17;;;6.47;;
15167;SDS011;7684;52.150;11.656;2022-11-04T20:37:29;9.23;;;5.67;;